createdAt,value
2022-09-12T00:00:25.456Z,7.30
2022-09-12T00:01:27.815Z,7.30
2022-09-12T00:02:29.803Z,7.40
2022-09-12T00:03:31.512Z,7.50
2022-09-12T00:04:33.210Z,7.60
2022-09-12T00:05:40.436Z,7.50
2022-09-12T00:06:42.695Z,7.60
2022-09-12T00:07:44.579Z,7.70
2022-09-12T00:08:46.903Z,7.80
2022-09-12T00:09:48.956Z,7.80
2022-09-12T00:10:50.796Z,7.80
2022-09-12T00:11:52.851Z,7.90
2022-09-12T00:12:55.512Z,8.10
2022-09-12T00:13:59.955Z,8.10
2022-09-12T00:15:01.923Z,8.20
2022-09-12T00:16:03.738Z,8.60
2022-09-12T00:17:05.604Z,8.80
2022-09-12T00:18:09.343Z,9.10
2022-09-12T00:19:12.138Z,9.40
2022-09-12T00:20:13.939Z,9.60
2022-09-12T00:21:17.630Z,9.20
2022-09-12T00:22:19.350Z,9.40
2022-09-12T00:23:21.264Z,9.50
2022-09-12T00:24:23.159Z,9.60
2022-09-12T00:25:24.995Z,9.60
2022-09-12T00:26:26.750Z,9.60
2022-09-12T00:27:28.654Z,9.70
2022-09-12T00:28:30.469Z,9.60
2022-09-12T00:29:32.329Z,9.60
2022-09-12T00:30:34.283Z,9.60
2022-09-12T00:31:36.449Z,9.70
2022-09-12T00:32:38.379Z,9.80
2022-09-12T00:33:40.767Z,9.90
2022-09-12T00:34:42.626Z,10.10
2022-09-12T00:35:50.591Z,9.90
2022-09-12T00:36:52.521Z,10.20
2022-09-12T00:37:57.248Z,10.20
2022-09-12T00:38:59.624Z,10.20
2022-09-12T00:40:01.729Z,10.10
2022-09-12T00:41:03.800Z,10.10
2022-09-12T00:42:05.621Z,10.30
2022-09-12T00:43:35.596Z,10.10
2022-09-12T00:44:37.316Z,10.20
2022-09-12T00:45:39.584Z,10.20
2022-09-12T00:46:59.358Z,10.20
2022-09-12T00:48:04.567Z,10.60
2022-09-12T00:49:14.145Z,10.30
2022-09-12T00:50:17.659Z,10.70
2022-09-12T00:51:20.299Z,10.50
2022-09-12T00:52:28.704Z,10.80
2022-09-12T00:53:30.964Z,11.00
2022-09-12T00:54:38.252Z,10.70
2022-09-12T00:55:46.207Z,10.90
2022-09-12T00:56:51.648Z,11.00
2022-09-12T00:57:57.934Z,10.70
2022-09-12T00:59:11.659Z,10.80
2022-09-12T01:00:16.637Z,10.90
2022-09-12T01:01:19.400Z,10.80
2022-09-12T01:02:21.844Z,10.90
2022-09-12T01:03:25.010Z,10.90
2022-09-12T01:04:29.037Z,10.90
2022-09-12T01:05:36.177Z,10.90
2022-09-12T01:06:41.430Z,10.90
2022-09-12T01:07:44.749Z,11.00
2022-09-12T01:08:48.143Z,10.80
2022-09-12T01:09:50.087Z,10.90
2022-09-12T01:10:53.099Z,10.70
2022-09-12T01:11:56.003Z,10.60
2022-09-12T01:12:59.738Z,10.70
2022-09-12T01:14:01.525Z,10.50
2022-09-12T01:15:03.500Z,10.30
2022-09-12T01:16:06.806Z,10.40
2022-09-12T01:17:12.888Z,10.40
2022-09-12T01:18:29.822Z,10.80
2022-09-12T01:20:05.812Z,10.90
2022-09-12T01:21:20.591Z,11.30
2022-09-12T01:23:00.927Z,11.20
2022-09-12T01:24:29.522Z,11.60
2022-09-12T01:25:46.402Z,11.90
2022-09-12T01:26:53.736Z,11.50
2022-09-12T01:28:21.733Z,11.50
2022-09-12T01:29:32.592Z,11.40
2022-09-12T01:30:39.836Z,11.60
2022-09-12T01:31:48.328Z,11.60
2022-09-12T01:33:23.075Z,11.90
2022-09-12T01:34:28.176Z,12.20
2022-09-12T01:35:50.808Z,11.90
2022-09-12T01:37:00.239Z,12.20
2022-09-12T01:38:19.419Z,11.90
2022-09-12T01:39:32.845Z,12.10
2022-09-12T01:40:54.523Z,12.10
2022-09-12T01:42:05.213Z,12.10
2022-09-12T01:43:21.465Z,12.10
2022-09-12T01:44:33.772Z,12.00
2022-09-12T01:45:50.453Z,12.00
2022-09-12T01:47:36.314Z,12.00
2022-09-12T01:48:57.972Z,12.40
2022-09-12T01:50:08.225Z,11.90
2022-09-12T01:51:21.810Z,12.30
2022-09-12T01:52:32.463Z,12.40
2022-09-12T01:53:56.143Z,12.30
2022-09-12T01:55:09.559Z,12.10
2022-09-12T01:56:22.610Z,12.20
2022-09-12T01:57:32.379Z,12.40
2022-09-12T01:58:54.387Z,12.40
2022-09-12T02:00:01.439Z,12.20
2022-09-12T02:01:11.295Z,12.40
2022-09-12T02:02:31.611Z,12.40
2022-09-12T02:03:45.085Z,12.50
2022-09-12T02:04:59.905Z,12.50
2022-09-12T02:06:25.283Z,12.40
2022-09-12T02:07:36.217Z,12.40
2022-09-12T02:08:44.383Z,12.90
2022-09-12T02:09:54.279Z,12.70
2022-09-12T02:11:01.800Z,12.60
2022-09-12T02:12:06.264Z,12.50
2022-09-12T02:13:15.860Z,12.60
2022-09-12T02:14:32.453Z,12.70
2022-09-12T02:15:44.713Z,12.80
2022-09-12T02:16:55.532Z,12.50
2022-09-12T02:17:59.979Z,12.40
2022-09-12T02:19:09.812Z,12.20
2022-09-12T02:20:31.117Z,12.50
2022-09-12T02:21:43.062Z,12.60
2022-09-12T02:22:47.752Z,12.50
2022-09-12T02:23:57.405Z,12.40
2022-09-12T02:25:00.843Z,12.60
2022-09-12T02:26:20.582Z,12.40
2022-09-12T02:27:27.739Z,12.60
2022-09-12T02:28:41.450Z,12.60
2022-09-12T02:29:44.891Z,12.60
2022-09-12T02:31:22.388Z,12.30
2022-09-12T02:32:32.774Z,12.30
2022-09-12T02:33:52.004Z,12.60
2022-09-12T02:35:03.422Z,12.80
2022-09-12T02:36:24.222Z,12.80
2022-09-12T02:37:50.701Z,12.80
2022-09-12T02:38:53.097Z,13.00
2022-09-12T02:39:59.175Z,13.10
2022-09-12T02:41:01.161Z,13.00
2022-09-12T02:42:04.209Z,12.80
2022-09-12T02:43:06.389Z,12.80
2022-09-12T02:44:08.245Z,12.70
2022-09-12T02:45:11.141Z,12.60
2022-09-12T02:46:18.790Z,12.60
2022-09-12T02:47:33.775Z,12.60
2022-09-12T02:48:41.448Z,12.70
2022-09-12T02:49:43.796Z,12.40
2022-09-12T02:50:46.067Z,12.20
2022-09-12T02:51:48.883Z,12.10
2022-09-12T02:52:54.043Z,12.10
2022-09-12T02:53:56.676Z,12.40
2022-09-12T02:55:00.423Z,12.60
2022-09-12T02:56:03.048Z,12.80
2022-09-12T02:57:17.688Z,12.80
2022-09-12T02:58:29.188Z,12.90
2022-09-12T02:59:31.035Z,13.30
2022-09-12T03:00:39.864Z,13.40
2022-09-12T03:02:28.374Z,13.40
2022-09-12T03:03:45.123Z,13.40
2022-09-12T03:05:11.882Z,13.50
2022-09-12T03:06:19.950Z,13.50
2022-09-12T03:07:55.674Z,13.40
2022-09-12T03:09:17.763Z,13.50
2022-09-12T03:10:48.601Z,13.50
2022-09-12T03:12:06.935Z,13.40
2022-09-12T03:13:33.216Z,13.40
2022-09-12T03:14:44.119Z,13.40
2022-09-12T03:15:54.313Z,13.30
2022-09-12T03:17:09.037Z,14.00
2022-09-12T03:18:24.113Z,13.40
2022-09-12T03:19:32.223Z,13.40
2022-09-12T03:21:02.438Z,13.10
2022-09-12T03:22:24.033Z,13.40
2022-09-12T03:23:38.620Z,13.40
2022-09-12T03:24:51.901Z,13.50
2022-09-12T03:26:01.357Z,13.80
2022-09-12T03:27:10.050Z,13.80
2022-09-12T03:28:15.636Z,14.00
2022-09-12T03:29:19.328Z,13.80
2022-09-12T03:30:21.388Z,13.80
2022-09-12T03:31:23.468Z,13.60
2022-09-12T03:32:51.235Z,13.70
2022-09-12T03:33:53.191Z,13.80
2022-09-12T03:34:55.032Z,13.30
2022-09-12T03:35:57.057Z,13.30
2022-09-12T03:36:59.656Z,13.40
2022-09-12T03:38:01.643Z,13.30
2022-09-12T03:39:03.510Z,13.40
2022-09-12T03:40:09.574Z,13.40
2022-09-12T03:41:11.527Z,13.30
2022-09-12T03:42:13.344Z,13.30
2022-09-12T03:43:15.082Z,13.30
2022-09-12T03:44:17.851Z,13.30
2022-09-12T03:45:19.753Z,13.30
2022-09-12T03:46:21.566Z,13.30
2022-09-12T03:47:23.293Z,13.30
2022-09-12T03:48:25.123Z,13.30
2022-09-12T03:49:27.033Z,13.40
2022-09-12T03:50:28.721Z,13.30
2022-09-12T03:51:31.105Z,13.90
2022-09-12T03:52:33.406Z,13.30
2022-09-12T03:53:35.654Z,13.30
2022-09-12T03:54:37.372Z,13.30
2022-09-12T03:55:40.981Z,13.30
2022-09-12T03:56:42.805Z,13.30
2022-09-12T03:57:45.228Z,13.30
2022-09-12T03:58:47.534Z,13.30
2022-09-12T03:59:53.015Z,13.90
2022-09-12T04:00:54.750Z,13.30
2022-09-12T04:01:56.846Z,13.30
2022-09-12T04:02:58.822Z,13.30
2022-09-12T04:04:00.648Z,13.30
2022-09-12T04:05:02.639Z,13.30
2022-09-12T04:06:04.907Z,13.30
2022-09-12T04:07:06.769Z,13.20
2022-09-12T04:08:08.439Z,13.30
2022-09-12T04:09:10.230Z,13.20
2022-09-12T04:10:11.925Z,13.30
2022-09-12T04:11:15.434Z,13.20
2022-09-12T04:12:18.055Z,13.20
2022-09-12T04:13:19.878Z,13.20
2022-09-12T04:14:21.699Z,13.50
2022-09-12T04:15:23.727Z,13.30
2022-09-12T04:16:25.434Z,13.30
2022-09-12T04:17:27.111Z,13.50
2022-09-12T04:18:29.276Z,13.50
2022-09-12T04:19:30.959Z,13.60
2022-09-12T04:20:32.683Z,13.50
2022-09-12T04:21:34.603Z,13.60
2022-09-12T04:22:36.637Z,13.50
2022-09-12T04:23:38.722Z,13.20
2022-09-12T04:24:41.021Z,13.20
2022-09-12T04:25:42.866Z,13.20
2022-09-12T04:26:44.865Z,13.20
2022-09-12T04:27:46.550Z,13.20
2022-09-12T04:28:53.846Z,13.20
2022-09-12T04:29:56.426Z,13.20
2022-09-12T04:31:02.941Z,13.20
2022-09-12T04:32:04.851Z,13.20
2022-09-12T04:33:08.190Z,13.20
2022-09-12T04:34:10.509Z,13.20
2022-09-12T04:35:13.025Z,13.10
2022-09-12T04:36:17.757Z,13.10
2022-09-12T04:37:19.806Z,13.10
2022-09-12T04:38:21.644Z,13.10
2022-09-12T04:39:23.604Z,13.10
2022-09-12T04:40:25.624Z,13.10
2022-09-12T04:41:31.489Z,13.20
2022-09-12T04:42:33.302Z,13.20
2022-09-12T04:43:36.440Z,13.20
2022-09-12T04:44:38.088Z,13.20
2022-09-12T04:45:40.474Z,13.20
2022-09-12T04:46:47.825Z,13.20
2022-09-12T04:47:49.813Z,13.10
2022-09-12T04:48:56.462Z,13.10
2022-09-12T04:49:58.798Z,13.10
2022-09-12T04:51:28.179Z,13.10
2022-09-12T04:52:29.908Z,13.10
2022-09-12T04:53:31.972Z,13.10
2022-09-12T04:54:35.732Z,13.10
2022-09-12T04:55:37.393Z,13.10
2022-09-12T04:56:40.729Z,13.10
2022-09-12T04:57:42.997Z,13.30
2022-09-12T04:58:45.087Z,13.50
2022-09-12T04:59:46.883Z,13.50
2022-09-12T05:00:49.131Z,13.80
2022-09-12T05:01:51.455Z,13.50
2022-09-12T05:02:53.214Z,13.70
2022-09-12T05:03:55.882Z,13.80
2022-09-12T05:04:57.645Z,13.60
2022-09-12T05:06:00.318Z,13.70
2022-09-12T05:07:02.231Z,13.60
2022-09-12T05:08:06.914Z,13.70
2022-09-12T05:09:11.641Z,13.90
2022-09-12T05:10:13.316Z,13.90
2022-09-12T05:11:22.699Z,13.90
2022-09-12T05:12:27.534Z,13.80
2022-09-12T05:13:29.243Z,14.10
2022-09-12T05:14:32.668Z,13.90
2022-09-12T05:15:35.838Z,14.00
2022-09-12T05:16:37.848Z,14.00
2022-09-12T05:17:39.568Z,13.80
2022-09-12T05:18:41.834Z,13.50
2022-09-12T05:19:43.551Z,13.70
2022-09-12T05:20:45.444Z,13.50
2022-09-12T05:21:47.310Z,13.10
2022-09-12T05:22:49.149Z,13.30
2022-09-12T05:23:52.813Z,13.10
2022-09-12T05:24:54.624Z,13.10
2022-09-12T05:25:58.981Z,13.10
2022-09-12T05:27:00.899Z,13.10
2022-09-12T05:28:02.889Z,13.10
2022-09-12T05:29:06.444Z,13.10
2022-09-12T05:30:09.099Z,13.10
2022-09-12T05:31:16.617Z,13.10
2022-09-12T05:32:19.028Z,13.10
2022-09-12T05:33:24.971Z,13.10
2022-09-12T05:34:28.052Z,13.10
2022-09-12T05:35:30.351Z,13.00
2022-09-12T05:36:32.372Z,13.10
2022-09-12T05:37:35.245Z,13.00
2022-09-12T05:38:37.679Z,13.00
2022-09-12T05:39:40.587Z,13.00
2022-09-12T05:40:42.416Z,13.00
2022-09-12T05:41:44.472Z,13.20
2022-09-12T05:42:46.115Z,13.10
2022-09-12T05:43:51.723Z,13.10
2022-09-12T05:44:53.969Z,13.10
2022-09-12T05:46:09.014Z,13.10
2022-09-12T05:47:12.644Z,13.10
2022-09-12T05:48:14.337Z,13.10
2022-09-12T05:49:16.171Z,13.10
2022-09-12T05:50:18.371Z,13.10
2022-09-12T05:51:23.443Z,13.10
2022-09-12T05:52:25.254Z,13.60
2022-09-12T05:53:28.267Z,13.00
2022-09-12T05:54:31.702Z,13.00
2022-09-12T05:55:34.311Z,13.00
2022-09-12T05:56:41.939Z,12.90
2022-09-12T05:57:47.047Z,13.10
2022-09-12T05:58:57.760Z,13.40
2022-09-12T05:59:59.700Z,13.70
2022-09-12T06:01:16.580Z,13.50
2022-09-12T06:02:18.614Z,13.70
2022-09-12T06:03:20.623Z,14.00
2022-09-12T06:04:23.948Z,14.10
2022-09-12T06:05:26.096Z,14.00
2022-09-12T06:06:29.745Z,13.80
2022-09-12T06:07:32.818Z,14.00
2022-09-12T06:08:36.402Z,14.10
2022-09-12T06:09:38.322Z,14.20
2022-09-12T06:10:40.119Z,14.20
2022-09-12T06:11:42.369Z,14.30
2022-09-12T06:12:44.176Z,14.20
2022-09-12T06:13:46.143Z,14.10
2022-09-12T06:14:47.958Z,14.30
2022-09-12T06:15:50.243Z,14.40
2022-09-12T06:16:52.233Z,14.60
2022-09-12T06:17:54.715Z,14.50
2022-09-12T06:18:58.820Z,14.40
2022-09-12T06:20:00.747Z,14.30
2022-09-12T06:21:12.958Z,14.20
2022-09-12T06:22:14.963Z,14.40
2022-09-12T06:23:16.897Z,14.30
2022-09-12T06:24:19.903Z,14.10
2022-09-12T06:25:22.434Z,14.20
2022-09-12T06:26:25.810Z,14.20
2022-09-12T06:27:27.607Z,14.10
2022-09-12T06:28:29.761Z,14.20
2022-09-12T06:29:32.983Z,14.10
2022-09-12T06:30:37.544Z,14.20
2022-09-12T06:31:44.502Z,14.20
2022-09-12T06:32:46.314Z,14.30
2022-09-12T06:33:50.487Z,14.20
2022-09-12T06:34:52.181Z,14.20
2022-09-12T06:35:54.028Z,14.00
2022-09-12T06:36:55.766Z,13.80
2022-09-12T06:38:00.044Z,13.60
2022-09-12T06:39:05.675Z,13.50
2022-09-12T06:40:08.790Z,13.40
2022-09-12T06:41:12.561Z,13.10
2022-09-12T06:42:14.984Z,13.10
2022-09-12T06:43:16.943Z,13.10
2022-09-12T06:44:21.210Z,13.10
2022-09-12T06:45:22.953Z,13.10
2022-09-12T06:46:25.361Z,13.10
2022-09-12T06:47:27.141Z,13.20
2022-09-12T06:48:29.615Z,13.10
2022-09-12T06:49:31.832Z,13.10
2022-09-12T06:50:33.671Z,13.10
2022-09-12T06:51:38.241Z,13.10
2022-09-12T06:52:40.188Z,13.20
2022-09-12T06:53:42.863Z,13.20
2022-09-12T06:54:45.222Z,13.20
2022-09-12T06:55:47.072Z,13.20
2022-09-12T06:56:48.837Z,13.20
2022-09-12T06:57:51.888Z,13.20
2022-09-12T06:58:56.289Z,13.20
2022-09-12T06:59:58.628Z,13.20
2022-09-12T07:01:15.561Z,13.80
2022-09-12T07:02:17.523Z,13.20
2022-09-12T07:03:19.982Z,13.30
2022-09-12T07:04:22.248Z,13.30
2022-09-12T07:05:24.242Z,13.30
2022-09-12T07:06:31.869Z,13.20
2022-09-12T07:07:35.895Z,12.90
2022-09-12T07:08:38.608Z,12.80
2022-09-12T07:09:40.440Z,12.80
2022-09-12T07:10:42.264Z,13.10
2022-09-12T07:11:45.572Z,13.30
2022-09-12T07:12:47.946Z,13.30
2022-09-12T07:13:56.113Z,13.10
2022-09-12T07:14:57.950Z,13.00
2022-09-12T07:16:04.241Z,12.80
2022-09-12T07:17:07.522Z,12.90
2022-09-12T07:18:11.060Z,12.80
2022-09-12T07:19:12.851Z,12.70
2022-09-12T07:20:14.803Z,12.60
2022-09-12T07:21:16.665Z,12.60
2022-09-12T07:22:18.555Z,12.50
2022-09-12T07:23:20.221Z,12.40
2022-09-12T07:24:21.826Z,12.20
2022-09-12T07:25:24.045Z,12.20
2022-09-12T07:26:27.614Z,12.20
2022-09-12T07:27:29.661Z,11.90
2022-09-12T07:28:34.013Z,11.60
2022-09-12T07:29:37.734Z,11.50
2022-09-12T07:30:39.810Z,12.10
2022-09-12T07:31:41.808Z,11.70
2022-09-12T07:32:43.628Z,11.80
2022-09-12T07:33:45.797Z,11.60
2022-09-12T07:34:47.631Z,11.50
2022-09-12T07:35:49.881Z,11.60
2022-09-12T07:36:51.747Z,11.60
2022-09-12T07:37:53.565Z,11.60
2022-09-12T07:38:59.211Z,11.40
2022-09-12T07:40:02.370Z,11.00
2022-09-12T07:41:14.699Z,11.00
2022-09-12T07:42:16.899Z,10.90
2022-09-12T07:43:18.723Z,10.80
2022-09-12T07:44:22.166Z,10.80
2022-09-12T07:45:23.942Z,10.80
2022-09-12T07:46:26.818Z,10.70
2022-09-12T07:47:28.750Z,10.50
2022-09-12T07:48:30.426Z,10.30
2022-09-12T07:49:32.068Z,10.40
2022-09-12T07:50:34.271Z,10.60
2022-09-12T07:51:35.964Z,10.90
2022-09-12T07:52:37.703Z,11.00
2022-09-12T07:53:43.354Z,10.90
2022-09-12T07:54:45.025Z,10.90
2022-09-12T07:55:53.999Z,10.80
2022-09-12T07:56:55.760Z,10.80
2022-09-12T07:57:57.630Z,10.70
2022-09-12T07:58:59.596Z,10.50
2022-09-12T08:00:01.522Z,10.50
2022-09-12T08:01:05.213Z,10.50
2022-09-12T08:02:12.456Z,10.20
2022-09-12T08:03:18.852Z,10.30
2022-09-12T08:04:22.235Z,10.40
2022-09-12T08:05:24.083Z,9.80
2022-09-12T08:06:27.504Z,9.80
2022-09-12T08:07:29.452Z,9.80
2022-09-12T08:08:31.351Z,9.00
2022-09-12T08:09:33.261Z,8.90
2022-09-12T08:10:36.942Z,8.60
2022-09-12T08:11:38.839Z,8.80
2022-09-12T08:12:40.842Z,8.70
2022-09-12T08:13:43.596Z,8.70
2022-09-12T08:14:45.572Z,8.40
2022-09-12T08:15:47.413Z,8.00
2022-09-12T08:16:49.111Z,7.90
2022-09-12T08:17:51.243Z,7.90
2022-09-12T08:18:53.733Z,7.70
2022-09-12T08:19:56.850Z,7.70
2022-09-12T08:20:59.346Z,7.20
2022-09-12T08:22:03.166Z,7.00
2022-09-12T08:23:05.005Z,6.70
2022-09-12T08:24:07.084Z,6.90
2022-09-12T08:25:09.296Z,7.10
2022-09-12T08:26:12.319Z,6.80
2022-09-12T08:27:15.225Z,6.80
2022-09-12T08:28:16.922Z,6.90
2022-09-12T08:29:18.619Z,6.90
2022-09-12T08:30:20.523Z,6.40
2022-09-12T08:31:24.559Z,6.00
2022-09-12T08:32:26.361Z,6.10
2022-09-12T08:33:33.112Z,6.10
2022-09-12T08:34:35.226Z,5.70
2022-09-12T08:35:37.035Z,5.40
2022-09-12T08:36:38.769Z,5.00
2022-09-12T08:37:41.314Z,4.80
2022-09-12T08:38:45.422Z,4.70
2022-09-12T08:39:47.778Z,4.60
2022-09-12T08:41:00.298Z,4.30
2022-09-12T08:42:04.786Z,3.80
2022-09-12T08:43:34.121Z,3.90
2022-09-12T08:44:56.435Z,2.60
2022-09-12T08:46:04.858Z,2.10
2022-09-12T08:47:28.853Z,2.20
2022-09-12T08:48:31.561Z,1.00
2022-09-12T08:49:57.094Z,2.00
2022-09-12T08:51:00.116Z,1.90
2022-09-12T08:52:23.807Z,1.70
2022-09-12T08:53:28.735Z,1.00
2022-09-12T08:54:31.956Z,1.00
2022-09-12T08:55:41.210Z,1.00
2022-09-12T08:56:43.695Z,1.00
2022-09-12T08:57:46.196Z,1.00
2022-09-12T08:58:48.748Z,1.00
2022-09-12T08:59:51.449Z,1.00
2022-09-12T09:01:26.512Z,1.00
2022-09-12T09:02:49.570Z,1.00
2022-09-12T09:04:09.075Z,1.00
2022-09-12T09:05:21.734Z,1.00
2022-09-12T09:06:43.134Z,1.00
2022-09-12T09:08:02.594Z,1.00
2022-09-12T09:09:15.838Z,1.00
2022-09-12T09:10:52.525Z,1.00
2022-09-12T09:12:12.854Z,1.00
2022-09-12T09:13:47.991Z,1.00
2022-09-12T09:15:23.748Z,1.00
2022-09-12T09:16:35.187Z,1.00
2022-09-12T09:17:50.608Z,1.00
2022-09-12T09:18:54.146Z,1.00
2022-09-12T09:20:17.431Z,1.00
2022-09-12T09:21:29.561Z,1.00
2022-09-12T09:22:48.306Z,1.00
2022-09-12T09:23:56.932Z,1.00
2022-09-12T09:25:08.410Z,1.00
2022-09-12T09:26:26.787Z,1.00
2022-09-12T09:27:55.630Z,1.00
2022-09-12T09:29:03.204Z,1.00
2022-09-12T09:30:05.755Z,1.00
2022-09-12T09:31:16.248Z,1.00
2022-09-12T09:32:23.704Z,1.00
2022-09-12T09:33:32.365Z,1.00
2022-09-12T09:34:35.834Z,1.00
2022-09-12T09:35:52.363Z,1.00
2022-09-12T09:36:57.137Z,1.00
2022-09-12T09:38:06.250Z,1.00
2022-09-12T09:39:13.613Z,1.00
2022-09-12T09:40:39.623Z,1.00
2022-09-12T09:42:03.808Z,1.00
2022-09-12T09:43:08.730Z,1.00
2022-09-12T09:44:10.806Z,1.00
2022-09-12T09:45:22.826Z,1.00
2022-09-12T09:46:25.492Z,1.00
2022-09-12T09:47:27.864Z,1.00
2022-09-12T09:48:36.689Z,1.00
2022-09-12T09:49:39.197Z,1.00
2022-09-12T09:50:41.390Z,1.00
2022-09-12T09:51:43.353Z,1.00
2022-09-12T09:52:47.013Z,1.00
2022-09-12T09:53:53.045Z,1.00
2022-09-12T09:55:01.835Z,1.00
2022-09-12T09:56:26.988Z,1.00
2022-09-12T09:57:34.604Z,1.00
2022-09-12T09:58:37.180Z,1.00
2022-09-12T09:59:38.862Z,1.00
2022-09-12T10:00:40.779Z,1.00
2022-09-12T10:01:53.791Z,1.00
2022-09-12T10:03:26.961Z,1.00
2022-09-12T10:04:32.349Z,1.00
2022-09-12T10:05:46.795Z,1.00
2022-09-12T10:06:52.002Z,1.00
2022-09-12T10:07:53.855Z,1.00
2022-09-12T10:09:17.150Z,1.00
2022-09-12T10:10:23.065Z,1.00
2022-09-12T10:11:33.609Z,1.00
2022-09-12T10:12:35.616Z,1.00
2022-09-12T10:13:54.809Z,1.00
2022-09-12T10:15:05.267Z,1.00
2022-09-12T10:16:22.783Z,1.00
2022-09-12T10:17:33.185Z,1.00
2022-09-12T10:18:42.396Z,1.00
2022-09-12T10:19:45.535Z,1.00
2022-09-12T10:20:49.143Z,1.00
2022-09-12T10:21:54.062Z,1.00
2022-09-12T10:22:56.452Z,1.00
2022-09-12T10:24:00.327Z,1.00
2022-09-12T10:25:02.999Z,1.00
2022-09-12T10:26:10.747Z,1.00
2022-09-12T10:27:13.582Z,1.00
2022-09-12T10:28:27.116Z,1.00
2022-09-12T10:29:33.665Z,1.00
2022-09-12T10:30:39.217Z,1.00
2022-09-12T10:31:59.648Z,1.00
2022-09-12T10:33:08.762Z,1.00
2022-09-12T10:34:32.425Z,1.00
2022-09-12T10:35:45.675Z,1.00
2022-09-12T10:36:47.805Z,1.00
2022-09-12T10:38:02.755Z,1.00
2022-09-12T10:39:06.018Z,1.00
2022-09-12T10:40:22.312Z,1.00
2022-09-12T10:41:25.164Z,1.00
2022-09-12T10:42:50.183Z,1.00
2022-09-12T10:43:52.035Z,1.00
2022-09-12T10:44:56.770Z,1.00
2022-09-12T10:46:00.461Z,1.00
2022-09-12T10:47:24.385Z,1.00
2022-09-12T10:48:31.814Z,1.00
2022-09-12T10:49:38.281Z,1.00
2022-09-12T10:50:42.571Z,1.00
2022-09-12T10:51:44.301Z,1.00
2022-09-12T10:52:45.918Z,1.00
2022-09-12T10:53:47.856Z,1.00
2022-09-12T10:54:51.285Z,1.00
2022-09-12T10:56:28.065Z,1.00
2022-09-12T10:57:35.613Z,1.00
2022-09-12T10:59:19.963Z,1.00
2022-09-12T11:00:27.738Z,1.00
2022-09-12T11:01:32.760Z,1.00
2022-09-12T11:02:48.788Z,1.00
2022-09-12T11:04:02.702Z,1.00
2022-09-12T11:05:46.061Z,1.00
2022-09-12T11:06:56.457Z,1.00
2022-09-12T11:08:07.799Z,1.00
2022-09-12T11:09:19.193Z,1.00
2022-09-12T11:10:34.309Z,1.00
2022-09-12T11:12:00.958Z,1.00
2022-09-12T11:13:02.739Z,1.00
2022-09-12T11:14:32.265Z,1.00
2022-09-12T11:15:39.708Z,1.00
2022-09-12T11:16:55.988Z,1.00
2022-09-12T11:18:18.333Z,1.00
2022-09-12T11:19:44.112Z,1.00
2022-09-12T11:20:57.431Z,1.00
2022-09-12T11:22:31.088Z,1.00
2022-09-12T11:23:36.640Z,1.00
2022-09-12T11:24:49.862Z,1.00
2022-09-12T11:26:23.575Z,1.00
2022-09-12T11:27:51.628Z,1.00
2022-09-12T11:29:18.554Z,1.00
2022-09-12T11:30:20.313Z,1.00
2022-09-12T11:31:42.383Z,1.00
2022-09-12T11:32:46.838Z,1.00
2022-09-12T11:33:56.532Z,1.00
2022-09-12T11:35:19.550Z,1.00
2022-09-12T11:36:27.841Z,1.00
2022-09-12T11:37:38.551Z,1.00
2022-09-12T11:38:51.125Z,1.00
2022-09-12T11:39:55.825Z,1.00
2022-09-12T11:41:24.967Z,1.00
2022-09-12T11:42:31.958Z,1.00
2022-09-12T11:43:53.296Z,1.00
2022-09-12T11:45:31.529Z,1.00
2022-09-12T11:46:38.512Z,1.00
2022-09-12T11:47:43.525Z,1.00
2022-09-12T11:48:55.162Z,1.00
2022-09-12T11:49:58.947Z,1.00
2022-09-12T11:51:04.652Z,1.00
2022-09-12T11:52:25.285Z,1.00
2022-09-12T11:53:34.290Z,1.00
2022-09-12T11:54:42.946Z,1.00
2022-09-12T11:56:00.926Z,1.00
2022-09-12T11:57:16.851Z,1.00
2022-09-12T11:58:22.410Z,1.00
2022-09-12T11:59:50.121Z,1.00
2022-09-12T12:00:56.349Z,1.00
2022-09-12T12:02:00.415Z,1.00
2022-09-12T12:03:13.830Z,1.00
2022-09-12T12:04:22.166Z,1.00
2022-09-12T12:05:31.775Z,1.00
2022-09-12T12:07:03.266Z,1.00
2022-09-12T12:08:08.959Z,1.00
2022-09-12T12:09:12.864Z,1.00
2022-09-12T12:10:31.265Z,1.00
2022-09-12T12:11:44.007Z,1.00
2022-09-12T12:12:46.175Z,1.00
2022-09-12T12:14:07.184Z,1.00
2022-09-12T12:15:16.249Z,1.00
2022-09-12T12:16:33.343Z,1.00
2022-09-12T12:17:35.377Z,1.00
2022-09-12T12:18:38.941Z,1.00
2022-09-12T12:19:40.675Z,1.00
2022-09-12T12:20:42.636Z,1.00
2022-09-12T12:21:46.108Z,1.00
2022-09-12T12:22:54.787Z,1.00
2022-09-12T12:24:02.389Z,1.00
2022-09-12T12:25:12.985Z,1.00
2022-09-12T12:26:40.951Z,1.00
2022-09-12T12:27:50.692Z,1.00
2022-09-12T12:28:52.643Z,1.00
2022-09-12T12:29:54.351Z,1.00
2022-09-12T12:30:56.774Z,1.00
2022-09-12T12:32:02.226Z,1.00
2022-09-12T12:33:13.373Z,1.00
2022-09-12T12:34:28.339Z,1.00
2022-09-12T12:35:36.529Z,1.00
2022-09-12T12:36:42.348Z,1.00
2022-09-12T12:37:48.566Z,1.00
2022-09-12T12:38:50.451Z,1.00
2022-09-12T12:40:03.042Z,1.00
2022-09-12T12:41:17.314Z,1.00
2022-09-12T12:42:39.400Z,1.00
2022-09-12T12:43:41.260Z,1.00
2022-09-12T12:44:47.226Z,1.00
2022-09-12T12:46:02.590Z,1.00
2022-09-12T12:47:25.291Z,1.00
2022-09-12T12:48:30.211Z,1.00
2022-09-12T12:49:32.271Z,1.00
2022-09-12T12:50:34.424Z,1.00
2022-09-12T12:51:48.351Z,1.00
2022-09-12T12:52:52.071Z,1.00
2022-09-12T12:53:55.485Z,1.00
2022-09-12T12:55:03.667Z,1.00
2022-09-12T12:56:06.036Z,1.00
2022-09-12T12:57:13.661Z,1.00
2022-09-12T12:58:34.925Z,1.00
2022-09-12T12:59:36.928Z,1.00
2022-09-12T13:00:40.529Z,1.00
2022-09-12T13:01:54.254Z,1.00
2022-09-12T13:03:08.907Z,1.00
2022-09-12T13:04:18.235Z,1.00
2022-09-12T13:05:24.125Z,1.00
2022-09-12T13:06:34.152Z,1.00
2022-09-12T13:07:40.497Z,1.00
2022-09-12T13:08:57.697Z,1.00
2022-09-12T13:10:01.445Z,1.00
2022-09-12T13:11:09.675Z,1.00
2022-09-12T13:12:33.975Z,1.00
2022-09-12T13:13:40.996Z,1.00
2022-09-12T13:14:42.798Z,1.00
2022-09-12T13:15:51.585Z,1.00
2022-09-12T13:17:03.305Z,1.00
2022-09-12T13:18:12.442Z,1.00
2022-09-12T13:19:20.479Z,1.00
2022-09-12T13:20:29.612Z,1.00
2022-09-12T13:21:31.907Z,1.00
2022-09-12T13:22:43.561Z,1.00
2022-09-12T13:24:00.003Z,1.00
2022-09-12T13:25:03.193Z,1.00
2022-09-12T13:26:24.006Z,1.00
2022-09-12T13:27:26.073Z,1.00
2022-09-12T13:28:30.491Z,1.00
2022-09-12T13:29:32.262Z,1.00
2022-09-12T13:30:37.017Z,1.00
2022-09-12T13:31:40.840Z,1.00
2022-09-12T13:32:44.470Z,1.00
2022-09-12T13:33:51.405Z,1.00
2022-09-12T13:35:13.035Z,1.00
2022-09-12T13:36:44.873Z,1.00
2022-09-12T13:38:08.874Z,1.00
2022-09-12T13:39:20.572Z,1.00
2022-09-12T13:40:57.501Z,1.00
2022-09-12T13:42:37.822Z,1.00
2022-09-12T13:43:46.803Z,1.00
2022-09-12T13:44:53.161Z,1.00
2022-09-12T13:45:55.121Z,1.00
2022-09-12T13:47:01.319Z,1.00
2022-09-12T13:48:04.860Z,1.00
2022-09-12T13:49:29.160Z,1.00
2022-09-12T13:50:41.557Z,1.00
2022-09-12T13:51:43.595Z,1.00
2022-09-12T13:52:50.446Z,1.00
2022-09-12T13:53:56.245Z,1.00
2022-09-12T13:54:59.528Z,1.00
2022-09-12T13:56:01.760Z,1.00
2022-09-12T13:57:04.911Z,1.00
2022-09-12T13:58:22.029Z,1.00
2022-09-12T13:59:24.658Z,1.00
2022-09-12T14:00:26.997Z,1.00
2022-09-12T14:01:43.781Z,1.00
2022-09-12T14:02:47.448Z,1.00
2022-09-12T14:04:13.296Z,1.00
2022-09-12T14:05:22.123Z,1.00
2022-09-12T14:06:26.326Z,1.00
2022-09-12T14:07:28.414Z,1.00
2022-09-12T14:08:32.302Z,1.00
2022-09-12T14:09:43.323Z,1.00
2022-09-12T14:10:49.414Z,1.00
2022-09-12T14:11:52.412Z,1.00
2022-09-12T14:12:57.406Z,1.00
2022-09-12T14:14:01.572Z,1.00
2022-09-12T14:15:04.490Z,1.00
2022-09-12T14:16:09.950Z,1.00
2022-09-12T14:17:38.823Z,1.00
2022-09-12T14:18:45.105Z,1.00
2022-09-12T14:19:47.364Z,1.00
2022-09-12T14:20:52.316Z,1.00
2022-09-12T14:21:54.707Z,1.00
2022-09-12T14:22:59.311Z,1.00
2022-09-12T14:24:05.040Z,1.00
2022-09-12T14:25:14.072Z,1.00
2022-09-12T14:26:20.090Z,1.00
2022-09-12T14:27:32.172Z,1.00
2022-09-12T14:28:35.183Z,1.00
2022-09-12T14:29:36.931Z,1.00
2022-09-12T14:30:39.064Z,1.00
2022-09-12T14:31:41.478Z,1.00
2022-09-12T14:32:43.166Z,1.00
2022-09-12T14:33:53.800Z,1.00
2022-09-12T14:35:11.900Z,1.00
2022-09-12T14:36:34.061Z,1.00
2022-09-12T14:37:36.104Z,1.00
2022-09-12T14:38:42.615Z,1.00
2022-09-12T14:39:45.775Z,1.00
2022-09-12T14:40:49.049Z,1.00
2022-09-12T14:41:52.186Z,1.00
2022-09-12T14:42:56.991Z,1.00
2022-09-12T14:44:15.503Z,1.00
2022-09-12T14:45:31.494Z,1.00
2022-09-12T14:46:35.708Z,1.00